Рассадник сумчатой русофобии - AntonTsAU (antontsau) wrote,
Рассадник сумчатой русофобии - AntonTsAU
antontsau

Category:

А вот и лето!

Как и планировалось! Вернулся из европ и сразу тут оно уже

SPECI YSBK 060630Z AUTO 33018G29KT 9999 // NCD 29/M05 Q0995 RMK

29 градусов. И total fire ban потому что ветер 30 узлов.
Tags: Сидней, лытдыбр, природное
Subscribe

  • Хозяин медной горы говна

    Каменный, мня, цвяточек. Малахит натюрель, без гмо и смс - кальций и СО3 из цемента, медь из трубы, вода из дождя. Это у нас в…

  • My comment to an entry 'Бурление в Раше' by minsk007

    Потому что сидит какой-то мелкий манагерок в рекламном отделе и ему надо отрапортовать об успехах. Вот в частности замечательная тема — хайп,…

  • Ммммеееее!

    Очередь в эвтаназоколочную из баранов. Это еще не вся, там метров 300 и за угол загибается. Тьфу, чел-овечество натуральное.

  • Post a new comment

    Error

    Anonymous comments are disabled in this journal

    default userpic

    Your reply will be screened

    Your IP address will be recorded 

  • 9 comments